sensor_id;sensor_type;location;lat;lon;timestamp;pressure;altitude;pressure_sealevel;temperature;humidity
80542;BME280;69870;51.460;8.842;2023-08-06T00:01:53;97618.63;;;14.53;83.18
80542;BME280;69870;51.460;8.842;2023-08-06T00:04:19;97610.81;;;14.55;82.55
80542;BME280;69870;51.460;8.842;2023-08-06T00:06:47;97608.84;;;14.59;82.53
80542;BME280;69870;51.460;8.842;2023-08-06T00:09:14;97611.56;;;14.59;82.54
80542;BME280;69870;51.460;8.842;2023-08-06T00:11:40;97618.59;;;14.60;83.13
80542;BME280;69870;51.460;8.842;2023-08-06T00:14:09;97613.91;;;14.61;82.62
80542;BME280;69870;51.460;8.842;2023-08-06T00:16:35;97607.66;;;14.60;83.17
80542;BME280;69870;51.460;8.842;2023-08-06T00:19:02;97598.66;;;14.60;83.18
80542;BME280;69870;51.460;8.842;2023-08-06T00:21:28;97610.38;;;14.60;83.32
80542;BME280;69870;51.460;8.842;2023-08-06T00:23:56;97602.97;;;14.61;82.98
80542;BME280;69870;51.460;8.842;2023-08-06T00:26:23;97605.31;;;14.59;82.63
80542;BME280;69870;51.460;8.842;2023-08-06T00:28:50;97603.00;;;14.57;83.44
80542;BME280;69870;51.460;8.842;2023-08-06T00:31:17;97603.00;;;14.57;82.36
80542;BME280;69870;51.460;8.842;2023-08-06T00:33:43;97604.53;;;14.58;83.11
80542;BME280;69870;51.460;8.842;2023-08-06T00:36:10;97595.16;;;14.59;83.40
80542;BME280;69870;51.460;8.842;2023-08-06T00:38:36;97596.69;;;14.60;82.98
80542;BME280;69870;51.460;8.842;2023-08-06T00:41:04;97587.69;;;14.60;82.49
80542;BME280;69870;51.460;8.842;2023-08-06T00:43:31;97585.38;;;14.58;83.04
80542;BME280;69870;51.460;8.842;2023-08-06T00:45:57;97579.53;;;14.56;82.64
80542;BME280;69870;51.460;8.842;2023-08-06T00:48:24;97575.63;;;14.57;83.18
80542;BME280;69870;51.460;8.842;2023-08-06T00:50:51;97568.56;;;14.56;82.81
80542;BME280;69870;51.460;8.842;2023-08-06T00:53:17;97580.31;;;14.57;82.76
80542;BME280;69870;51.460;8.842;2023-08-06T00:55:44;97576.00;;;14.56;82.91
80542;BME280;69870;51.460;8.842;2023-08-06T00:58:14;97572.88;;;14.54;82.82
80542;BME280;69870;51.460;8.842;2023-08-06T01:00:41;97572.50;;;14.55;82.93
80542;BME280;69870;51.460;8.842;2023-08-06T01:03:08;97563.88;;;14.53;83.58
80542;BME280;69870;51.460;8.842;2023-08-06T01:05:34;97559.63;;;14.52;82.82
80542;BME280;69870;51.460;8.842;2023-08-06T01:08:12;97556.88;;;14.52;83.00
80542;BME280;69870;51.460;8.842;2023-08-06T01:10:49;97551.41;;;14.52;83.56
80542;BME280;69870;51.460;8.842;2023-08-06T01:13:24;97546.34;;;14.51;83.12
80542;BME280;69870;51.460;8.842;2023-08-06T01:15:55;97542.81;;;14.50;83.13
80542;BME280;69870;51.460;8.842;2023-08-06T01:18:23;97545.56;;;14.50;83.07
80542;BME280;69870;51.460;8.842;2023-08-06T01:20:51;97535.78;;;14.49;83.27
80542;BME280;69870;51.460;8.842;2023-08-06T01:23:18;97537.72;;;14.49;83.24
80542;BME280;69870;51.460;8.842;2023-08-06T01:25:49;97542.81;;;14.47;83.02
80542;BME280;69870;51.460;8.842;2023-08-06T01:28:36;97533.44;;;14.44;83.38
80542;BME280;69870;51.460;8.842;2023-08-06T01:31:10;97522.50;;;14.44;83.18
80542;BME280;69870;51.460;8.842;2023-08-06T01:33:38;97517.03;;;14.44;83.60
80542;BME280;69870;51.460;8.842;2023-08-06T01:36:11;97523.28;;;14.45;83.07
80542;BME280;69870;51.460;8.842;2023-08-06T01:38:37;97521.38;;;14.42;83.54
80542;BME280;69870;51.460;8.842;2023-08-06T01:41:04;97522.94;;;14.39;83.08
80542;BME280;69870;51.460;8.842;2023-08-06T01:43:30;97520.19;;;14.39;82.79
80542;BME280;69870;51.460;8.842;2023-08-06T01:45:57;97514.72;;;14.39;83.40
80542;BME280;69870;51.460;8.842;2023-08-06T01:48:23;97508.06;;;14.40;82.98
80542;BME280;69870;51.460;8.842;2023-08-06T01:50:50;97514.72;;;14.39;83.79
80542;BME280;69870;51.460;8.842;2023-08-06T01:53:19;97504.19;;;14.34;83.51
80542;BME280;69870;51.460;8.842;2023-08-06T01:55:47;97507.34;;;14.33;83.34
80542;BME280;69870;51.460;8.842;2023-08-06T01:58:14;97508.91;;;14.30;83.88
80542;BME280;69870;51.460;8.842;2023-08-06T02:00:41;97497.56;;;14.28;83.42
80542;BME280;69870;51.460;8.842;2023-08-06T02:03:07;97497.56;;;14.28;83.94
80542;BME280;69870;51.460;8.842;2023-08-06T02:05:34;97491.72;;;14.26;83.40
80542;BME280;69870;51.460;8.842;2023-08-06T02:08:00;97500.69;;;14.23;83.91
80542;BME280;69870;51.460;8.842;2023-08-06T02:10:29;97496.81;;;14.21;83.85
80542;BME280;69870;51.460;8.842;2023-08-06T02:12:56;97487.06;;;14.16;83.76
80542;BME280;69870;51.460;8.842;2023-08-06T02:15:22;97479.25;;;14.15;84.29
80542;BME280;69870;51.460;8.842;2023-08-06T02:17:49;97479.25;;;14.11;83.20
80542;BME280;69870;51.460;8.842;2023-08-06T02:20:15;97478.50;;;14.07;84.36
80542;BME280;69870;51.460;8.842;2023-08-06T02:22:42;97480.88;;;14.02;83.96
80542;BME280;69870;51.460;8.842;2023-08-06T02:25:09;97485.19;;;13.99;84.15
80542;BME280;69870;51.460;8.842;2023-08-06T02:27:37;97483.22;;;13.96;84.18
80542;BME280;69870;51.460;8.842;2023-08-06T02:30:04;97494.59;;;13.91;84.00
80542;BME280;69870;51.460;8.842;2023-08-06T02:32:31;97489.88;;;13.91;83.82
80542;BME280;69870;51.460;8.842;2023-08-06T02:35:00;97493.03;;;13.90;84.00
80542;BME280;69870;51.460;8.842;2023-08-06T02:37:27;97481.72;;;13.88;83.98
80542;BME280;69870;51.460;8.842;2023-08-06T02:39:54;97479.75;;;13.85;83.91
80542;BME280;69870;51.460;8.842;2023-08-06T02:42:20;97482.47;;;13.85;84.36
80542;BME280;69870;51.460;8.842;2023-08-06T02:44:50;97472.75;;;13.84;84.22
80542;BME280;69870;51.460;8.842;2023-08-06T02:47:16;97461.81;;;13.84;84.34
80542;BME280;69870;51.460;8.842;2023-08-06T02:49:43;97464.94;;;13.86;84.27
80542;BME280;69870;51.460;8.842;2023-08-06T02:52:11;97455.53;;;13.87;84.48
80542;BME280;69870;51.460;8.842;2023-08-06T02:54:37;97461.78;;;13.87;84.30
80542;BME280;69870;51.460;8.842;2023-08-06T02:57:05;97462.97;;;13.86;84.34
80542;BME280;69870;51.460;8.842;2023-08-06T02:59:34;97459.47;;;13.86;84.21
80542;BME280;69870;51.460;8.842;2023-08-06T03:02:13;97454.00;;;13.86;83.83
80542;BME280;69870;51.460;8.842;2023-08-06T03:04:51;97448.50;;;13.89;84.69
80542;BME280;69870;51.460;8.842;2023-08-06T03:07:21;97439.91;;;13.94;83.42
80542;BME280;69870;51.460;8.842;2023-08-06T03:09:53;97426.19;;;13.98;83.65
80542;BME280;69870;51.460;8.842;2023-08-06T03:12:20;97428.16;;;14.01;84.52
80542;BME280;69870;51.460;8.842;2023-08-06T03:14:48;97421.88;;;14.04;84.47
80542;BME280;69870;51.460;8.842;2023-08-06T03:17:17;97426.53;;;14.07;84.51
80542;BME280;69870;51.460;8.842;2023-08-06T03:19:43;97420.28;;;14.10;83.86
80542;BME280;69870;51.460;8.842;2023-08-06T03:22:11;97420.28;;;14.10;84.53
80542;BME280;69870;51.460;8.842;2023-08-06T03:24:38;97412.47;;;14.12;84.35
80542;BME280;69870;51.460;8.842;2023-08-06T03:27:05;97415.94;;;14.16;83.78
80542;BME280;69870;51.460;8.842;2023-08-06T03:29:32;97410.84;;;14.18;83.94
80542;BME280;69870;51.460;8.842;2023-08-06T03:32:00;97399.13;;;14.21;83.68
80542;BME280;69870;51.460;8.842;2023-08-06T03:34:29;97408.50;;;14.24;83.70
80542;BME280;69870;51.460;8.842;2023-08-06T03:36:56;97405.34;;;14.25;84.08
80542;BME280;69870;51.460;8.842;2023-08-06T03:39:22;97401.81;;;14.28;84.60
80542;BME280;69870;51.460;8.842;2023-08-06T03:41:49;97397.91;;;14.29;84.44
80542;BME280;69870;51.460;8.842;2023-08-06T03:44:16;97401.03;;;14.31;84.38
80542;BME280;69870;51.460;8.842;2023-08-06T03:46:42;97401.03;;;14.31;84.27
80542;BME280;69870;51.460;8.842;2023-08-06T03:49:09;97395.56;;;14.31;84.02
80542;BME280;69870;51.460;8.842;2023-08-06T03:51:37;97386.19;;;14.32;83.77
80542;BME280;69870;51.460;8.842;2023-08-06T03:54:04;97397.91;;;14.33;84.25
80542;BME280;69870;51.460;8.842;2023-08-06T03:56:31;97388.13;;;14.35;83.90
80542;BME280;69870;51.460;8.842;2023-08-06T03:58:58;97382.66;;;14.35;84.61
80542;BME280;69870;51.460;8.842;2023-08-06T04:01:25;97377.94;;;14.36;83.87
80542;BME280;69870;51.460;8.842;2023-08-06T04:03:52;97374.03;;;14.37;84.55
80542;BME280;69870;51.460;8.842;2023-08-06T04:06:19;97377.16;;;14.39;84.62
80542;BME280;69870;51.460;8.842;2023-08-06T04:08:47;97376.75;;;14.40;84.24
80542;BME280;69870;51.460;8.842;2023-08-06T04:11:13;97378.69;;;14.43;84.00
80542;BME280;69870;51.460;8.842;2023-08-06T04:13:42;97372.81;;;14.45;84.39
80542;BME280;69870;51.460;8.842;2023-08-06T04:16:09;97382.56;;;14.46;84.10
80542;BME280;69870;51.460;8.842;2023-08-06T04:18:35;97383.38;;;14.46;83.99
80542;BME280;69870;51.460;8.842;2023-08-06T04:21:02;97383.31;;;14.50;84.23
80542;BME280;69870;51.460;8.842;2023-08-06T04:23:29;97374.72;;;14.51;83.94
80542;BME280;69870;51.460;8.842;2023-08-06T04:26:01;97376.28;;;14.52;83.80
80542;BME280;69870;51.460;8.842;2023-08-06T04:28:31;97384.06;;;14.54;84.25
80542;BME280;69870;51.460;8.842;2023-08-06T04:30:59;97379.38;;;14.54;84.18
80542;BME280;69870;51.460;8.842;2023-08-06T04:33:26;97375.50;;;14.52;84.63
80542;BME280;69870;51.460;8.842;2023-08-06T04:35:56;97381.75;;;14.49;84.84
80542;BME280;69870;51.460;8.842;2023-08-06T04:38:24;97375.91;;;14.47;83.99
80542;BME280;69870;51.460;8.842;2023-08-06T04:40:52;97376.28;;;14.49;84.70
80542;BME280;69870;51.460;8.842;2023-08-06T04:43:21;97377.06;;;14.49;84.91
80542;BME280;69870;51.460;8.842;2023-08-06T04:45:49;97377.44;;;14.51;84.72
80542;BME280;69870;51.460;8.842;2023-08-06T04:48:16;97376.66;;;14.54;84.16
80542;BME280;69870;51.460;8.842;2023-08-06T04:50:44;97375.06;;;14.57;84.07
80542;BME280;69870;51.460;8.842;2023-08-06T04:53:10;97373.13;;;14.57;84.83
80542;BME280;69870;51.460;8.842;2023-08-06T04:55:37;97372.69;;;14.59;83.91
80542;BME280;69870;51.460;8.842;2023-08-06T04:58:03;97376.19;;;14.63;84.52
80542;BME280;69870;51.460;8.842;2023-08-06T05:00:31;97384.75;;;14.68;83.96
80542;BME280;69870;51.460;8.842;2023-08-06T05:02:59;97377.28;;;14.73;83.83
80542;BME280;69870;51.460;8.842;2023-08-06T05:05:26;97379.19;;;14.76;84.32
80542;BME280;69870;51.460;8.842;2023-08-06T05:07:55;97383.13;;;14.75;84.11
80542;BME280;69870;51.460;8.842;2023-08-06T05:10:23;97378.44;;;14.75;83.86
80542;BME280;69870;51.460;8.842;2023-08-06T05:12:50;97382.34;;;14.78;84.31
80542;BME280;69870;51.460;8.842;2023-08-06T05:15:17;97385.06;;;14.78;83.98
80542;BME280;69870;51.460;8.842;2023-08-06T05:17:45;97383.47;;;14.80;84.47
80542;BME280;69870;51.460;8.842;2023-08-06T05:20:11;97390.09;;;14.83;83.98
80542;BME280;69870;51.460;8.842;2023-08-06T05:22:38;97380.72;;;14.84;83.95
80542;BME280;69870;51.460;8.842;2023-08-06T05:25:05;97384.97;;;14.88;83.92
80542;BME280;69870;51.460;8.842;2023-08-06T05:27:32;97390.84;;;14.87;84.64
80542;BME280;69870;51.460;8.842;2023-08-06T05:29:59;97388.91;;;14.84;83.93
80542;BME280;69870;51.460;8.842;2023-08-06T05:32:26;97397.88;;;14.88;84.62
80542;BME280;69870;51.460;8.842;2023-08-06T05:34:53;97393.13;;;14.92;84.09
80542;BME280;69870;51.460;8.842;2023-08-06T05:37:20;97395.44;;;14.97;84.23
80542;BME280;69870;51.460;8.842;2023-08-06T05:39:47;97395.41;;;15.00;84.06
80542;BME280;69870;51.460;8.842;2023-08-06T05:42:13;97399.72;;;14.98;84.48
80542;BME280;69870;51.460;8.842;2023-08-06T05:44:40;97387.59;;;14.99;84.12
80542;BME280;69870;51.460;8.842;2023-08-06T05:47:06;97389.50;;;15.05;84.06
80542;BME280;69870;51.460;8.842;2023-08-06T05:49:33;97392.97;;;15.13;84.36
80542;BME280;69870;51.460;8.842;2023-08-06T05:52:01;97389.81;;;15.14;84.57
80542;BME280;69870;51.460;8.842;2023-08-06T05:54:31;97399.97;;;15.14;83.69
80542;BME280;69870;51.460;8.842;2023-08-06T05:56:58;97401.53;;;15.15;83.96
80542;BME280;69870;51.460;8.842;2023-08-06T05:59:24;97405.88;;;15.09;83.76
80542;BME280;69870;51.460;8.842;2023-08-06T06:01:51;97404.34;;;15.08;83.85
80542;BME280;69870;51.460;8.842;2023-08-06T06:04:17;97407.88;;;15.08;83.83
80542;BME280;69870;51.460;8.842;2023-08-06T06:06:44;97402.38;;;15.08;83.65
80542;BME280;69870;51.460;8.842;2023-08-06T06:09:12;97404.34;;;15.08;84.14
80542;BME280;69870;51.460;8.842;2023-08-06T06:11:38;97398.44;;;15.09;84.08
80542;BME280;69870;51.460;8.842;2023-08-06T06:14:05;97400.38;;;15.12;84.33
80542;BME280;69870;51.460;8.842;2023-08-06T06:16:31;97396.84;;;15.15;83.78
80542;BME280;69870;51.460;8.842;2023-08-06T06:18:58;97401.91;;;15.17;83.97
80542;BME280;69870;51.460;8.842;2023-08-06T06:21:24;97400.72;;;15.18;83.70
80542;BME280;69870;51.460;8.842;2023-08-06T06:23:51;97406.97;;;15.18;83.59
80542;BME280;69870;51.460;8.842;2023-08-06T06:26:19;97399.91;;;15.21;83.94
80542;BME280;69870;51.460;8.842;2023-08-06T06:28:45;97398.75;;;15.22;84.22
80542;BME280;69870;51.460;8.842;2023-08-06T06:31:12;97394.38;;;15.28;83.91
80542;BME280;69870;51.460;8.842;2023-08-06T06:33:39;97391.13;;;15.36;83.86
80542;BME280;69870;51.460;8.842;2023-08-06T06:36:05;97396.53;;;15.47;83.81
80542;BME280;69870;51.460;8.842;2023-08-06T06:38:33;97401.13;;;15.57;83.18
80542;BME280;69870;51.460;8.842;2023-08-06T06:40:59;97396.72;;;15.63;83.20
80542;BME280;69870;51.460;8.842;2023-08-06T06:43:29;97394.34;;;15.69;83.43
80542;BME280;69870;51.460;8.842;2023-08-06T06:45:56;97391.13;;;15.74;83.40
80542;BME280;69870;51.460;8.842;2023-08-06T06:48:25;97384.78;;;15.80;83.22
80542;BME280;69870;51.460;8.842;2023-08-06T06:50:52;97383.53;;;15.85;82.98
80542;BME280;69870;51.460;8.842;2023-08-06T06:53:19;97380.44;;;15.83;83.18
80542;BME280;69870;51.460;8.842;2023-08-06T06:55:45;97381.94;;;15.87;83.42
80542;BME280;69870;51.460;8.842;2023-08-06T06:58:14;97373.63;;;15.94;82.96
80542;BME280;69870;51.460;8.842;2023-08-06T07:00:42;97377.81;;;16.02;82.94
80542;BME280;69870;51.460;8.842;2023-08-06T07:03:09;97371.41;;;16.12;82.71
80542;BME280;69870;51.460;8.842;2023-08-06T07:05:35;97371.25;;;16.23;82.51
80542;BME280;69870;51.460;8.842;2023-08-06T07:08:02;97367.63;;;16.30;82.47
80542;BME280;69870;51.460;8.842;2023-08-06T07:10:28;97370.28;;;16.37;82.05
80542;BME280;69870;51.460;8.842;2023-08-06T07:12:55;97367.78;;;16.46;81.97
80542;BME280;69870;51.460;8.842;2023-08-06T07:15:22;97368.59;;;16.43;81.82
80542;BME280;69870;51.460;8.842;2023-08-06T07:17:49;97362.41;;;16.39;81.90
80542;BME280;69870;51.460;8.842;2023-08-06T07:20:16;97364.47;;;16.31;81.98
80542;BME280;69870;51.460;8.842;2023-08-06T07:22:43;97364.09;;;16.29;81.63
80542;BME280;69870;51.460;8.842;2023-08-06T07:25:10;97361.44;;;16.26;81.71
80542;BME280;69870;51.460;8.842;2023-08-06T07:27:37;97360.34;;;16.20;81.69
80542;BME280;69870;51.460;8.842;2023-08-06T07:30:04;97361.09;;;16.20;81.91
80542;BME280;69870;51.460;8.842;2023-08-06T07:32:31;97357.34;;;16.10;82.00
80542;BME280;69870;51.460;8.842;2023-08-06T07:34:59;97354.97;;;16.12;81.98
80542;BME280;69870;51.460;8.842;2023-08-06T07:37:28;97355.31;;;16.14;81.97
80542;BME280;69870;51.460;8.842;2023-08-06T07:39:55;97356.47;;;16.17;81.75
80542;BME280;69870;51.460;8.842;2023-08-06T07:42:21;97349.38;;;16.20;81.74
80542;BME280;69870;51.460;8.842;2023-08-06T07:44:51;97357.19;;;16.21;81.63
80542;BME280;69870;51.460;8.842;2023-08-06T07:47:18;97351.22;;;16.26;81.43
80542;BME280;69870;51.460;8.842;2023-08-06T07:49:44;97349.25;;;16.27;81.37
80542;BME280;69870;51.460;8.842;2023-08-06T07:52:12;97353.88;;;16.33;81.63
80542;BME280;69870;51.460;8.842;2023-08-06T07:54:39;97354.94;;;16.39;81.39
80542;BME280;69870;51.460;8.842;2023-08-06T07:57:06;97350.09;;;16.47;81.36
80542;BME280;69870;51.460;8.842;2023-08-06T07:59:32;97348.84;;;16.55;81.15
80542;BME280;69870;51.460;8.842;2023-08-06T08:02:00;97355.88;;;16.56;80.90
80542;BME280;69870;51.460;8.842;2023-08-06T08:04:26;97352.78;;;16.54;80.87
80542;BME280;69870;51.460;8.842;2023-08-06T08:06:53;97357.44;;;16.57;80.92
80542;BME280;69870;51.460;8.842;2023-08-06T08:09:21;97358.16;;;16.61;80.59
80542;BME280;69870;51.460;8.842;2023-08-06T08:11:47;97349.75;;;16.71;80.56
80542;BME280;69870;51.460;8.842;2023-08-06T08:14:14;97340.19;;;16.79;80.38
80542;BME280;69870;51.460;8.842;2023-08-06T08:16:40;97349.38;;;16.93;80.15
80542;BME280;69870;51.460;8.842;2023-08-06T08:19:07;97340.16;;;17.03;79.62
80542;BME280;69870;51.460;8.842;2023-08-06T08:21:34;97345.63;;;17.06;79.29
80542;BME280;69870;51.460;8.842;2023-08-06T08:24:00;97341.31;;;17.05;79.37
80542;BME280;69870;51.460;8.842;2023-08-06T08:26:29;97342.75;;;17.13;79.34
80542;BME280;69870;51.460;8.842;2023-08-06T08:28:56;97342.34;;;17.11;78.89
80542;BME280;69870;51.460;8.842;2023-08-06T08:31:23;97347.72;;;17.18;78.90
80542;BME280;69870;51.460;8.842;2023-08-06T08:33:49;97343.16;;;17.31;78.93
80542;BME280;69870;51.460;8.842;2023-08-06T08:36:16;97350.94;;;17.56;78.22
80542;BME280;69870;51.460;8.842;2023-08-06T08:38:42;97344.00;;;17.87;77.86
80542;BME280;69870;51.460;8.842;2023-08-06T08:41:10;97345.44;;;18.47;76.43
80542;BME280;69870;51.460;8.842;2023-08-06T08:43:38;97338.00;;;19.09;74.05
80542;BME280;69870;51.460;8.842;2023-08-06T08:46:08;97336.13;;;19.18;73.01
80542;BME280;69870;51.460;8.842;2023-08-06T08:48:35;97344.88;;;19.00;73.05
80542;BME280;69870;51.460;8.842;2023-08-06T08:51:02;97339.06;;;18.66;73.90
80542;BME280;69870;51.460;8.842;2023-08-06T08:53:30;97346.28;;;18.44;74.13
80542;BME280;69870;51.460;8.842;2023-08-06T08:55:58;97345.03;;;18.29;75.05
80542;BME280;69870;51.460;8.842;2023-08-06T08:58:25;97342.97;;;18.17;75.25
80542;BME280;69870;51.460;8.842;2023-08-06T09:00:53;97343.22;;;18.06;75.54
80542;BME280;69870;51.460;8.842;2023-08-06T09:03:20;97346.13;;;17.99;75.89
80542;BME280;69870;51.460;8.842;2023-08-06T09:05:49;97351.47;;;18.06;75.96
80542;BME280;69870;51.460;8.842;2023-08-06T09:08:23;97341.84;;;18.14;75.43
80542;BME280;69870;51.460;8.842;2023-08-06T09:10:50;97340.13;;;18.20;75.53
80542;BME280;69870;51.460;8.842;2023-08-06T09:13:18;97351.06;;;18.24;75.00
80542;BME280;69870;51.460;8.842;2023-08-06T09:15:45;97341.69;;;18.21;75.42
80542;BME280;69870;51.460;8.842;2023-08-06T09:18:13;97338.16;;;18.21;75.48
80542;BME280;69870;51.460;8.842;2023-08-06T09:20:39;97338.59;;;18.19;74.87
80542;BME280;69870;51.460;8.842;2023-08-06T09:23:09;97334.22;;;18.22;74.93
80542;BME280;69870;51.460;8.842;2023-08-06T09:25:38;97342.28;;;18.29;74.94
80542;BME280;69870;51.460;8.842;2023-08-06T09:28:05;97336.28;;;18.34;75.04
80542;BME280;69870;51.460;8.842;2023-08-06T09:30:33;97334.53;;;18.40;74.82
80542;BME280;69870;51.460;8.842;2023-08-06T09:33:00;97336.44;;;18.43;74.83
80542;BME280;69870;51.460;8.842;2023-08-06T09:35:29;97335.09;;;18.51;74.42
80542;BME280;69870;51.460;8.842;2023-08-06T09:37:56;97332.50;;;18.60;74.01
80542;BME280;69870;51.460;8.842;2023-08-06T09:40:27;97331.16;;;18.68;74.01
80542;BME280;69870;51.460;8.842;2023-08-06T09:42:54;97334.16;;;18.74;73.68
80542;BME280;69870;51.460;8.842;2023-08-06T09:45:21;97337.00;;;18.86;73.32
80542;BME280;69870;51.460;8.842;2023-08-06T09:47:48;97334.53;;;19.04;72.79
80542;BME280;69870;51.460;8.842;2023-08-06T09:50:16;97335.47;;;19.14;72.84
80542;BME280;69870;51.460;8.842;2023-08-06T09:52:45;97337.94;;;19.25;72.39
80542;BME280;69870;51.460;8.842;2023-08-06T09:55:13;97336.53;;;19.33;72.10
80542;BME280;69870;51.460;8.842;2023-08-06T09:57:40;97339.81;;;19.28;71.68
80542;BME280;69870;51.460;8.842;2023-08-06T10:00:07;97338.03;;;19.21;71.92
80542;BME280;69870;51.460;8.842;2023-08-06T10:02:39;97336.28;;;19.27;71.48
80542;BME280;69870;51.460;8.842;2023-08-06T10:05:07;97327.75;;;19.38;71.19
80542;BME280;69870;51.460;8.842;2023-08-06T10:07:34;97326.16;;;19.53;71.49
80542;BME280;69870;51.460;8.842;2023-08-06T10:10:02;97321.84;;;19.64;70.69
80542;BME280;69870;51.460;8.842;2023-08-06T10:12:32;97321.66;;;19.71;70.55
80542;BME280;69870;51.460;8.842;2023-08-06T10:15:04;97318.59;;;19.82;70.54
80542;BME280;69870;51.460;8.842;2023-08-06T10:17:31;97316.84;;;20.13;69.60
80542;BME280;69870;51.460;8.842;2023-08-06T10:19:59;97306.81;;;20.44;69.18
80542;BME280;69870;51.460;8.842;2023-08-06T10:22:26;97303.75;;;21.45;66.54
80542;BME280;69870;51.460;8.842;2023-08-06T10:24:54;97307.50;;;22.92;62.84
80542;BME280;69870;51.460;8.842;2023-08-06T10:27:27;97301.91;;;24.34;58.62
80542;BME280;69870;51.460;8.842;2023-08-06T10:29:54;97293.19;;;25.74;56.13
80542;BME280;69870;51.460;8.842;2023-08-06T10:32:21;97289.13;;;26.68;53.51
80542;BME280;69870;51.460;8.842;2023-08-06T10:34:55;97278.13;;;27.19;50.83
80542;BME280;69870;51.460;8.842;2023-08-06T10:37:22;97280.22;;;27.44;50.94
80542;BME280;69870;51.460;8.842;2023-08-06T10:39:50;97285.88;;;27.30;50.26
80542;BME280;69870;51.460;8.842;2023-08-06T10:42:22;97287.22;;;27.60;49.42
80542;BME280;69870;51.460;8.842;2023-08-06T10:45:11;97284.16;;;27.12;50.81
80542;BME280;69870;51.460;8.842;2023-08-06T10:47:38;97275.91;;;26.83;49.93
80542;BME280;69870;51.460;8.842;2023-08-06T10:50:06;97277.28;;;26.73;50.01
80542;BME280;69870;51.460;8.842;2023-08-06T10:52:33;97273.69;;;26.52;50.46
80542;BME280;69870;51.460;8.842;2023-08-06T10:55:00;97269.75;;;26.09;51.50
80542;BME280;69870;51.460;8.842;2023-08-06T10:57:28;97264.75;;;25.55;52.53
80542;BME280;69870;51.460;8.842;2023-08-06T10:59:54;97271.34;;;25.05;53.43
80542;BME280;69870;51.460;8.842;2023-08-06T11:02:21;97272.00;;;24.52;54.43
80542;BME280;69870;51.460;8.842;2023-08-06T11:04:48;97270.69;;;23.97;55.46
80542;BME280;69870;51.460;8.842;2023-08-06T11:07:15;97269.91;;;23.46;56.47
80542;BME280;69870;51.460;8.842;2023-08-06T11:09:42;97272.66;;;23.09;56.98
80542;BME280;69870;51.460;8.842;2023-08-06T11:12:09;97274.50;;;22.85;57.40
80542;BME280;69870;51.460;8.842;2023-08-06T11:14:38;97270.63;;;22.65;58.74
80542;BME280;69870;51.460;8.842;2023-08-06T11:17:05;97271.31;;;22.47;59.02
80542;BME280;69870;51.460;8.842;2023-08-06T11:19:32;97278.38;;;22.30;59.19
80542;BME280;69870;51.460;8.842;2023-08-06T11:21:58;97276.47;;;22.09;59.62
80542;BME280;69870;51.460;8.842;2023-08-06T11:24:26;97271.88;;;21.84;59.44
80542;BME280;69870;51.460;8.842;2023-08-06T11:26:53;97274.31;;;21.60;60.06
80542;BME280;69870;51.460;8.842;2023-08-06T11:29:19;97276.72;;;21.49;61.41
80542;BME280;69870;51.460;8.842;2023-08-06T11:31:49;97277.56;;;21.37;61.38
80542;BME280;69870;51.460;8.842;2023-08-06T11:34:16;97281.63;;;21.24;62.85
80542;BME280;69870;51.460;8.842;2023-08-06T11:36:43;97273.41;;;21.11;63.42
80542;BME280;69870;51.460;8.842;2023-08-06T11:39:09;97284.03;;;21.00;63.38
80542;BME280;69870;51.460;8.842;2023-08-06T11:41:36;97272.44;;;20.92;64.10
80542;BME280;69870;51.460;8.842;2023-08-06T11:44:05;97281.22;;;20.78;63.83
80542;BME280;69870;51.460;8.842;2023-08-06T11:46:51;97272.41;;;20.71;64.76
80542;BME280;69870;51.460;8.842;2023-08-06T11:49:18;97266.78;;;20.62;64.60
80542;BME280;69870;51.460;8.842;2023-08-06T11:51:47;97272.88;;;20.57;65.12
80542;BME280;69870;51.460;8.842;2023-08-06T11:54:14;97279.28;;;20.54;65.64
80542;BME280;69870;51.460;8.842;2023-08-06T11:56:40;97277.50;;;20.60;66.04
80542;BME280;69870;51.460;8.842;2023-08-06T11:59:08;97284.97;;;20.72;66.51
80542;BME280;69870;51.460;8.842;2023-08-06T12:01:35;97283.19;;;20.78;66.89
80542;BME280;69870;51.460;8.842;2023-08-06T12:04:05;97281.00;;;20.73;66.40
80542;BME280;69870;51.460;8.842;2023-08-06T12:06:41;97274.34;;;20.49;66.73
80542;BME280;69870;51.460;8.842;2023-08-06T12:09:08;97275.66;;;20.44;67.08
80542;BME280;69870;51.460;8.842;2023-08-06T12:11:35;97276.53;;;20.41;67.13
80542;BME280;69870;51.460;8.842;2023-08-06T12:14:02;97275.34;;;20.29;67.21
80542;BME280;69870;51.460;8.842;2023-08-06T12:16:28;97278.66;;;20.24;67.69
80542;BME280;69870;51.460;8.842;2023-08-06T12:18:55;97280.41;;;20.18;68.21
80542;BME280;69870;51.460;8.842;2023-08-06T12:21:23;97274.44;;;20.07;68.20
80542;BME280;69870;51.460;8.842;2023-08-06T12:23:49;97279.84;;;19.98;68.60
80542;BME280;69870;51.460;8.842;2023-08-06T12:26:16;97278.66;;;19.99;68.60
80542;BME280;69870;51.460;8.842;2023-08-06T12:28:42;97271.91;;;20.00;68.48
80542;BME280;69870;51.460;8.842;2023-08-06T12:31:09;97276.22;;;20.01;68.28
80542;BME280;69870;51.460;8.842;2023-08-06T12:33:36;97278.00;;;19.95;68.69
80542;BME280;69870;51.460;8.842;2023-08-06T12:36:03;97273.44;;;20.01;68.61
80542;BME280;69870;51.460;8.842;2023-08-06T12:38:31;97279.63;;;20.05;68.42
80542;BME280;69870;51.460;8.842;2023-08-06T12:40:59;97279.41;;;20.12;69.13
80542;BME280;69870;51.460;8.842;2023-08-06T12:43:25;97274.69;;;20.25;68.54
80542;BME280;69870;51.460;8.842;2023-08-06T12:45:53;97277.00;;;20.27;68.43
80542;BME280;69870;51.460;8.842;2023-08-06T12:48:19;97275.56;;;20.22;67.63
80542;BME280;69870;51.460;8.842;2023-08-06T12:50:46;97276.66;;;20.12;68.24
80542;BME280;69870;51.460;8.842;2023-08-06T12:53:14;97277.41;;;20.00;69.36
80542;BME280;69870;51.460;8.842;2023-08-06T12:55:42;97277.31;;;19.91;69.44
80542;BME280;69870;51.460;8.842;2023-08-06T12:58:09;97270.25;;;19.90;69.19
80542;BME280;69870;51.460;8.842;2023-08-06T13:00:35;97267.38;;;19.94;68.97
80542;BME280;69870;51.460;8.842;2023-08-06T13:03:02;97271.25;;;19.96;69.11